Terminal Aerodrome Forecast
Issued by NWS Cleveland, OH

Home | Current Version | Previous Version | Graphics & Text | Print | Product List | Glossary Off
Versions: 1 2 3 4 5 6 7 8 9 10 11 12

000
FTUS41 KCLE 261732
TAFTOL
TAF
KTOL 261732Z 2618/2718 22006KT P6SM VCTS SCT050CB BKN250
      TEMPO 2618/2622 5SM -SHRA BKN050
     FM262200 13004KT P6SM SCT050
      TEMPO 2622/2624 BKN050
     FM270000 VRB02KT P6SM SCT250
      TEMPO 2706/2709 5SM BR
     FM270900 VRB02KT 3SM BR SCT008 BKN250
     FM271400 30004KT P6SM FEW250=

USA.gov is the U.S. government's official web portal to all federal, state and local government web resources and services.